createdAt,value
2023-02-20T00:02:40.447Z,6.68
2023-02-20T00:07:43.371Z,7.13
2023-02-20T00:12:47.628Z,6.22
2023-02-20T00:17:50.874Z,8.82
2023-02-20T00:22:54.331Z,7.72
2023-02-20T00:27:58.485Z,9.40
2023-02-20T00:33:01.739Z,8.77
2023-02-20T00:38:04.431Z,9.95
2023-02-20T00:43:08.574Z,9.68
2023-02-20T00:48:11.332Z,11.38
2023-02-20T00:53:14.066Z,11.88
2023-02-20T00:58:18.219Z,9.15
2023-02-20T01:03:21.102Z,8.25
2023-02-20T01:08:24.042Z,10.70
2023-02-20T01:13:28.713Z,9.40
2023-02-20T01:18:31.650Z,9.43
2023-02-20T01:23:34.558Z,9.98
2023-02-20T01:28:38.791Z,11.25
2023-02-20T01:33:43.130Z,12.30
2023-02-20T01:38:48.447Z,10.27
2023-02-20T01:43:52.610Z,7.80
2023-02-20T01:49:00.364Z,8.48
2023-02-20T01:54:04.131Z,10.35
2023-02-20T01:59:10.349Z,10.35
2023-02-20T02:04:14.231Z,9.48
2023-02-20T02:09:23.460Z,7.70
2023-02-20T02:14:28.082Z,9.50
2023-02-20T02:19:50.783Z,12.05
2023-02-20T02:30:56.034Z,15.23
2023-02-20T02:36:14.482Z,13.60
2023-02-20T02:41:23.389Z,11.43
2023-02-20T02:46:32.291Z,14.10
2023-02-20T02:51:45.498Z,10.05
2023-02-20T02:56:49.648Z,12.65
2023-02-20T03:01:56.754Z,10.65
2023-02-20T03:07:06.810Z,9.45
2023-02-20T03:12:13.403Z,13.65
2023-02-20T03:17:27.676Z,12.32
2023-02-20T03:22:37.861Z,9.85
2023-02-20T03:27:51.515Z,11.93
2023-02-20T03:33:20.526Z,10.88
2023-02-20T03:38:43.922Z,13.57
2023-02-20T03:43:49.638Z,8.48
2023-02-20T03:48:56.179Z,13.30
2023-02-20T03:54:02.565Z,12.93
2023-02-20T03:59:12.768Z,11.80
2023-02-20T04:04:20.356Z,12.23
2023-02-20T04:09:29.870Z,8.45
2023-02-20T04:14:34.050Z,7.50
2023-02-20T04:19:38.911Z,9.40
2023-02-20T04:24:48.145Z,11.35
2023-02-20T04:29:51.331Z,8.80
2023-02-20T04:34:54.827Z,11.77
2023-02-20T04:39:59.259Z,11.40
2023-02-20T04:45:03.924Z,11.57
2023-02-20T04:50:07.965Z,11.63
2023-02-20T04:55:12.446Z,10.82
2023-02-20T05:00:16.944Z,9.82
2023-02-20T05:05:21.766Z,8.90
2023-02-20T05:10:27.323Z,9.05
2023-02-20T05:15:31.616Z,8.35
2023-02-20T05:21:06.621Z,9.40
2023-02-20T05:26:12.026Z,9.85
2023-02-20T05:31:17.658Z,8.18
2023-02-20T05:36:20.889Z,8.07
2023-02-20T05:41:25.058Z,9.73
2023-02-20T05:46:28.478Z,8.95
2023-02-20T05:51:34.125Z,8.48
2023-02-20T05:56:42.373Z,7.80
2023-02-20T06:01:45.164Z,8.93
2023-02-20T06:06:48.006Z,8.95
2023-02-20T06:11:53.807Z,9.70
2023-02-20T06:16:57.953Z,9.38
2023-02-20T06:22:01.810Z,10.43
2023-02-20T06:27:08.529Z,10.82
2023-02-20T06:32:11.340Z,10.95
2023-02-20T06:37:14.547Z,11.23
2023-02-20T06:42:18.710Z,14.00
2023-02-20T06:47:21.529Z,17.67
2023-02-20T06:52:24.238Z,14.50
2023-02-20T06:57:28.380Z,19.73
2023-02-20T07:02:31.125Z,15.65
2023-02-20T07:07:34.091Z,24.05
2023-02-20T07:12:39.633Z,17.38
2023-02-20T07:17:42.486Z,18.48
2023-02-20T07:22:50.937Z,21.58
2023-02-20T07:27:55.080Z,27.83
2023-02-20T07:32:57.851Z,23.60
2023-02-20T07:38:00.621Z,22.70
2023-02-20T07:43:04.789Z,24.13
2023-02-20T07:48:07.580Z,24.65
2023-02-20T07:53:11.499Z,20.80
2023-02-20T07:58:15.611Z,26.52
2023-02-20T08:03:18.581Z,21.35
2023-02-20T08:08:24.388Z,19.35
2023-02-20T08:13:28.659Z,24.92
2023-02-20T08:18:31.426Z,20.48
2023-02-20T08:23:34.214Z,22.15
2023-02-20T08:28:38.573Z,16.50
2023-02-20T08:33:41.565Z,23.75
2023-02-20T08:38:44.376Z,25.05
2023-02-20T08:43:48.525Z,14.95
2023-02-20T08:48:51.319Z,17.00
2023-02-20T08:53:54.129Z,20.45
2023-02-20T08:58:58.265Z,20.77
2023-02-20T09:04:02.175Z,18.02
2023-02-20T09:09:05.602Z,14.88
2023-02-20T09:14:10.758Z,18.10
2023-02-20T09:19:15.162Z,17.45
2023-02-20T09:24:18.027Z,14.15
2023-02-20T09:29:22.168Z,17.27
2023-02-20T09:34:26.086Z,18.08
2023-02-20T09:39:28.919Z,16.27
2023-02-20T09:44:42.212Z,19.98
2023-02-20T09:49:45.087Z,20.73
2023-02-20T09:54:54.391Z,27.63
2023-02-20T10:00:06.700Z,17.38
2023-02-20T10:05:20.281Z,28.67
2023-02-20T10:10:25.809Z,27.00
2023-02-20T10:15:37.842Z,29.10
2023-02-20T10:20:51.747Z,23.67
2023-02-20T10:25:57.767Z,26.55
2023-02-20T10:31:11.293Z,26.63
2023-02-20T10:36:19.187Z,25.85
2023-02-20T10:41:31.750Z,27.08
2023-02-20T10:46:48.992Z,24.63
2023-02-20T10:51:58.681Z,22.73
2023-02-20T10:57:07.371Z,27.50
2023-02-20T11:02:19.783Z,24.73
2023-02-20T11:07:23.921Z,26.08
2023-02-20T11:12:32.594Z,17.92
2023-02-20T11:17:40.045Z,20.75
2023-02-20T11:22:45.301Z,27.45
2023-02-20T11:27:51.534Z,26.52
2023-02-20T11:33:04.172Z,17.75
2023-02-20T11:43:31.669Z,21.88
2023-02-20T11:48:36.151Z,22.52
2023-02-20T11:53:38.939Z,24.73
2023-02-20T11:58:42.655Z,22.05
2023-02-20T12:03:56.194Z,22.40
2023-02-20T12:09:02.047Z,17.88
2023-02-20T12:14:12.319Z,18.00
2023-02-20T12:19:20.984Z,19.42
2023-02-20T12:24:54.332Z,13.75
2023-02-20T12:30:07.546Z,21.63
2023-02-20T12:35:34.308Z,18.70
2023-02-20T12:40:51.963Z,22.95
2023-02-20T12:46:04.867Z,18.65
2023-02-20T12:51:28.560Z,15.15
2023-02-20T12:56:43.005Z,19.88
2023-02-20T13:01:45.952Z,19.48
2023-02-20T13:06:57.885Z,13.85
2023-02-20T13:12:05.664Z,14.73
2023-02-20T13:17:22.443Z,17.45
2023-02-20T13:22:26.651Z,10.27
2023-02-20T13:27:32.127Z,12.20
2023-02-20T13:32:34.966Z,16.73
2023-02-20T13:38:10.270Z,13.80
2023-02-20T13:43:26.868Z,12.23
2023-02-20T13:48:44.258Z,15.95
2023-02-20T13:53:51.298Z,13.05
2023-02-20T13:58:58.334Z,14.45
2023-02-20T14:04:02.197Z,13.35
2023-02-20T14:09:11.697Z,14.93
2023-02-20T14:14:27.668Z,16.88
2023-02-20T14:19:30.799Z,13.50
2023-02-20T14:24:35.071Z,17.33
2023-02-20T14:29:38.753Z,11.65
2023-02-20T14:34:51.290Z,18.45
2023-02-20T14:40:03.888Z,11.35
2023-02-20T14:50:18.431Z,12.82
2023-02-20T14:55:26.791Z,14.35
2023-02-20T15:00:35.784Z,14.82
2023-02-20T15:05:44.568Z,14.90
2023-02-20T15:10:50.282Z,14.40
2023-02-20T15:16:04.870Z,19.02
2023-02-20T15:21:10.546Z,18.52
2023-02-20T15:26:32.799Z,17.80
2023-02-20T15:31:35.689Z,15.98
2023-02-20T15:36:38.472Z,11.55
2023-02-20T15:41:42.609Z,9.40
2023-02-20T15:46:45.378Z,9.07
2023-02-20T15:51:48.623Z,16.67
2023-02-20T15:56:53.446Z,15.10
2023-02-20T16:01:56.347Z,15.25
2023-02-20T16:06:59.353Z,13.82
2023-02-20T16:12:03.634Z,11.43
2023-02-20T16:17:06.419Z,11.25
2023-02-20T16:22:10.670Z,11.88
2023-02-20T16:27:24.913Z,11.85
2023-02-20T16:32:29.320Z,11.00
2023-02-20T16:37:32.487Z,15.63
2023-02-20T16:42:38.756Z,15.13
2023-02-20T16:47:42.353Z,17.33
2023-02-20T16:52:45.142Z,14.25
2023-02-20T16:57:49.777Z,10.32
2023-02-20T17:02:53.629Z,10.00
2023-02-20T17:07:56.899Z,14.23
2023-02-20T17:13:01.050Z,9.05
2023-02-20T17:18:03.884Z,13.48
2023-02-20T17:23:06.926Z,11.13
2023-02-20T17:28:12.669Z,12.73
2023-02-20T17:33:15.989Z,15.95
2023-02-20T17:38:18.750Z,15.32
2023-02-20T17:43:22.878Z,15.30
2023-02-20T17:48:25.656Z,20.02
2023-02-20T17:53:28.478Z,13.02
2023-02-20T17:58:32.622Z,20.80
2023-02-20T18:03:35.502Z,16.40
2023-02-20T18:08:38.248Z,14.93
2023-02-20T18:13:42.378Z,15.77
2023-02-20T18:18:45.321Z,17.33
2023-02-20T18:23:48.087Z,13.25
2023-02-20T18:28:52.244Z,22.35
2023-02-20T18:33:55.574Z,22.02
2023-02-20T18:38:58.898Z,18.88
2023-02-20T18:44:03.111Z,22.45
2023-02-20T18:49:05.950Z,23.67
2023-02-20T18:54:11.122Z,22.40
2023-02-20T18:59:16.069Z,22.70
2023-02-20T19:04:18.922Z,26.60
2023-02-20T19:09:23.561Z,31.10
2023-02-20T19:14:29.393Z,22.98
2023-02-20T19:19:34.338Z,27.45
2023-02-20T19:24:39.339Z,23.30
2023-02-20T19:29:45.598Z,24.77
2023-02-20T19:34:48.618Z,24.40
2023-02-20T19:39:51.512Z,34.65
2023-02-20T19:44:55.688Z,29.73
2023-02-20T19:49:58.460Z,21.67
2023-02-20T19:55:01.380Z,37.42
2023-02-20T20:00:06.163Z,38.28
2023-02-20T20:05:16.854Z,24.30
2023-02-20T20:10:21.881Z,34.30
2023-02-20T20:15:28.553Z,43.17
2023-02-20T20:20:33.152Z,25.65
2023-02-20T20:25:36.753Z,38.13
2023-02-20T20:30:41.215Z,38.85
2023-02-20T20:35:44.104Z,32.38
2023-02-20T20:40:46.903Z,25.52
2023-02-20T20:45:51.157Z,34.42
2023-02-20T20:50:54.345Z,30.05
2023-02-20T20:55:57.094Z,34.17
2023-02-20T21:01:01.230Z,25.40
2023-02-20T21:06:04.143Z,26.20
2023-02-20T21:11:07.317Z,40.85
2023-02-20T21:16:11.605Z,31.48
2023-02-20T21:21:15.069Z,27.30
2023-02-20T21:26:18.012Z,32.78
2023-02-20T21:31:22.315Z,29.35
2023-02-20T21:36:26.003Z,34.05
2023-02-20T21:41:46.565Z,33.88
2023-02-20T21:46:51.532Z,25.15
2023-02-20T21:51:54.840Z,36.22
2023-02-20T21:56:58.490Z,43.50
2023-02-20T22:02:01.789Z,37.53
2023-02-20T22:07:22.029Z,24.40
2023-02-20T22:12:42.272Z,29.55
2023-02-20T22:18:03.995Z,34.45
2023-02-20T22:23:25.502Z,33.92
2023-02-20T22:28:45.938Z,37.38
2023-02-20T22:34:07.810Z,32.65
2023-02-20T22:39:31.213Z,32.30
2023-02-20T22:44:51.591Z,39.40
2023-02-20T22:50:13.255Z,30.80
2023-02-20T22:55:33.775Z,41.03
2023-02-20T23:00:54.308Z,42.50
2023-02-20T23:06:18.444Z,37.10
2023-02-20T23:11:39.212Z,28.50
2023-02-20T23:16:59.570Z,44.97
2023-02-20T23:22:21.197Z,33.38
2023-02-20T23:27:41.766Z,29.33
2023-02-20T23:33:02.132Z,29.35
2023-02-20T23:38:23.900Z,33.58
2023-02-20T23:43:46.901Z,32.30
2023-02-20T23:49:07.108Z,32.90
2023-02-20T23:54:28.808Z,34.63
2023-02-20T23:59:49.142Z,30.05
